Victoriaville, Canada
Current Conditions -  °F | °C
As of 8:00 AM on Thursday 30 Oct 2014 (Local Time) from CYRQ Reporting Station
Clear Clear  
Wind Chill: 30°   Ceiling: Unl
Heat Index: 30°   Visibility: 9mi
Dew Point: 28°   Wind: 0mph
Humidity: 93%   Direction: NA
Pressure: 29.91"   Gusts: NA
Location:  46.05°N, 71.97°W
Report Text: CYRQ 301200Z AUTO 00000KT 9SM CLR M01/M02 A2991 RMK SLP132
Loading
Personal Weather Stations






























Interactive Weather Map
Tropical Storm Tracking
New forecast layout! Learn more

10-Day Weather Forecast

Advertisements
Track Severe Weather on mobile